Archie, Louisiana
Current Conditions -  °F | °C
As of 11:53 AM on Monday 24 Nov 2014 (Local Time) from KESF Reporting Station
Clear Clear  
Wind Chill: 62°   Ceiling: Unl
Heat Index: 62°   Visibility: 10mi
Dew Point: 36°   Wind: 6mph
Humidity: 38%   Direction: NA
Pressure: 29.98"   Gusts: NA
Location:  31.5028°N, 91.9028°W
Report Text: KESF 241753Z AUTO VRB05KT 10SM CLR 17/02 A2998 RMK AO2 SLP149 T01670022 10167 20100 50004
Loading
Personal Weather Stations






























Interactive Weather Map New forecast layout! Learn more

10-Day Weather Forecast

Advertisements
Track Severe Weather on mobile